createdAt,value
2023-05-17T01:04:33.261Z,4.10
2023-05-17T01:06:38.930Z,3.80
2023-05-17T01:08:45.779Z,4.90
2023-05-17T01:11:02.050Z,4.00
2023-05-17T01:13:15.500Z,3.80
2023-05-17T01:15:26.062Z,3.50
2023-05-17T01:17:39.269Z,4.10
2023-05-17T01:20:06.363Z,4.10
2023-05-17T01:22:20.875Z,4.10
2023-05-17T01:24:33.888Z,4.10
2023-05-17T01:26:43.200Z,4.10
2023-05-17T01:28:53.150Z,3.70
2023-05-17T01:31:00.764Z,3.80
2023-05-17T01:33:06.945Z,3.90
2023-05-17T01:35:13.051Z,3.10
2023-05-17T01:37:18.027Z,4.10
2023-05-17T01:39:22.790Z,3.50
2023-05-17T01:41:30.594Z,3.40
2023-05-17T01:43:41.693Z,3.90
2023-05-17T01:46:00.497Z,3.40
2023-05-17T01:48:15.491Z,3.90
2023-05-17T01:50:24.711Z,3.20
2023-05-17T01:52:35.434Z,3.50
2023-05-17T01:54:45.977Z,2.80
2023-05-17T01:56:59.347Z,3.40
2023-05-17T01:59:06.645Z,3.10
2023-05-17T02:01:13.299Z,3.30
2023-05-17T02:03:20.737Z,3.40
2023-05-17T02:05:28.134Z,3.70
2023-05-17T02:07:33.084Z,3.40
2023-05-17T02:09:37.840Z,3.10
2023-05-17T02:11:42.931Z,3.10
2023-05-17T02:13:47.667Z,3.00
2023-05-17T02:15:52.399Z,3.20
2023-05-17T02:17:57.213Z,2.80
2023-05-17T02:20:02.084Z,2.80
2023-05-17T02:22:07.457Z,3.00
2023-05-17T02:24:12.256Z,2.70
2023-05-17T02:26:16.978Z,3.20
2023-05-17T02:28:21.625Z,3.20
2023-05-17T02:30:26.284Z,3.30
2023-05-17T02:32:32.300Z,3.10
2023-05-17T02:34:37.240Z,3.00
2023-05-17T02:36:43.293Z,3.30
2023-05-17T02:38:50.655Z,2.90
2023-05-17T02:40:55.459Z,3.30
2023-05-17T02:43:00.199Z,3.60
2023-05-17T02:45:05.914Z,3.80
2023-05-17T02:47:10.702Z,2.90
2023-05-17T02:49:18.254Z,3.50
2023-05-17T02:51:23.256Z,3.70
2023-05-17T02:53:27.953Z,3.80
2023-05-17T02:55:32.865Z,3.70
2023-05-17T02:57:37.764Z,4.10
2023-05-17T02:59:42.589Z,3.80
2023-05-17T03:01:47.575Z,3.90
2023-05-17T03:03:52.571Z,4.30
2023-05-17T03:06:01.922Z,3.60
2023-05-17T03:08:07.300Z,4.00
2023-05-17T03:10:12.535Z,4.50
2023-05-17T03:12:20.910Z,4.10
2023-05-17T03:14:25.837Z,3.90
2023-05-17T03:16:30.562Z,3.80
2023-05-17T03:18:35.927Z,3.70
2023-05-17T03:20:40.787Z,4.90
2023-05-17T03:22:45.574Z,4.00
2023-05-17T03:24:50.404Z,4.40
2023-05-17T03:26:55.106Z,3.60
2023-05-17T03:29:00.142Z,4.20
2023-05-17T03:31:05.086Z,3.70
2023-05-17T03:33:11.221Z,3.80
2023-05-17T03:35:15.999Z,4.80
2023-05-17T03:37:23.944Z,3.80
2023-05-17T03:39:28.623Z,4.70
2023-05-17T03:41:33.861Z,4.20
2023-05-17T03:43:41.815Z,3.90
2023-05-17T03:45:48.670Z,4.00
2023-05-17T03:47:55.512Z,3.70
2023-05-17T03:50:00.628Z,5.00
2023-05-17T03:52:07.137Z,3.80
2023-05-17T03:54:11.772Z,4.30
2023-05-17T03:56:16.489Z,3.80
2023-05-17T03:58:21.181Z,4.70
2023-05-17T04:00:26.350Z,4.70
2023-05-17T04:02:33.274Z,4.60
2023-05-17T04:04:38.119Z,4.80
2023-05-17T04:06:42.797Z,4.40
2023-05-17T04:08:50.281Z,4.50
2023-05-17T04:10:55.047Z,4.70
2023-05-17T04:12:59.886Z,4.30
2023-05-17T04:15:05.844Z,4.90
2023-05-17T04:17:10.767Z,3.40
2023-05-17T04:19:15.879Z,3.90
2023-05-17T04:21:23.742Z,3.60
2023-05-17T04:23:31.347Z,4.70
2023-05-17T04:25:37.048Z,5.10
2023-05-17T04:27:41.777Z,4.40
2023-05-17T04:29:46.840Z,4.10
2023-05-17T04:31:51.604Z,3.60
2023-05-17T04:33:56.412Z,4.20
2023-05-17T04:36:01.431Z,3.60
2023-05-17T04:38:06.295Z,4.40
2023-05-17T04:40:12.557Z,3.90
2023-05-17T04:42:17.358Z,4.60
2023-05-17T04:44:26.768Z,4.90
2023-05-17T04:46:31.880Z,4.80
2023-05-17T04:48:36.771Z,4.40
2023-05-17T04:50:44.908Z,4.90
2023-05-17T04:52:49.921Z,3.50
2023-05-17T04:54:55.559Z,4.50
2023-05-17T04:57:00.643Z,4.90
2023-05-17T04:59:24.294Z,4.40
2023-05-17T05:01:29.345Z,5.20
2023-05-17T05:03:34.182Z,4.90
2023-05-17T05:05:39.147Z,5.00
2023-05-17T05:07:43.905Z,4.50
2023-05-17T05:09:48.648Z,3.50
2023-05-17T05:11:53.984Z,3.70
2023-05-17T05:13:59.236Z,5.30
2023-05-17T05:16:04.666Z,3.80
2023-05-17T05:18:09.630Z,4.20
2023-05-17T05:20:15.335Z,5.20
2023-05-17T05:22:20.737Z,4.40
2023-05-17T05:24:25.509Z,4.90
2023-05-17T05:26:33.805Z,5.30
2023-05-17T05:28:38.776Z,6.40
2023-05-17T05:30:43.528Z,4.90
2023-05-17T05:32:49.000Z,4.00
2023-05-17T05:34:53.811Z,5.70
2023-05-17T05:36:58.536Z,5.20
2023-05-17T05:39:03.797Z,4.00
2023-05-17T05:41:09.339Z,6.10
2023-05-17T05:43:14.801Z,5.70
2023-05-17T05:45:19.980Z,3.80
2023-05-17T05:47:25.078Z,3.80
2023-05-17T05:49:30.266Z,3.90
2023-05-17T05:51:35.152Z,5.20
2023-05-17T05:53:40.052Z,5.10
2023-05-17T05:55:45.881Z,4.40
2023-05-17T05:57:50.603Z,5.90
2023-05-17T05:59:55.371Z,5.40
2023-05-17T06:02:00.526Z,4.80
2023-05-17T06:04:05.630Z,5.80
2023-05-17T06:06:10.506Z,4.80
2023-05-17T06:08:15.261Z,5.40
2023-05-17T06:10:20.066Z,6.20
2023-05-17T06:12:24.875Z,5.40
2023-05-17T06:14:30.118Z,4.50
2023-05-17T06:16:34.550Z,4.50
2023-05-17T06:18:39.491Z,4.70
2023-05-17T06:20:44.349Z,4.70
2023-05-17T06:22:49.083Z,6.10
2023-05-17T06:24:53.674Z,6.30
2023-05-17T06:26:59.385Z,5.00
2023-05-17T06:29:04.097Z,5.20
2023-05-17T06:31:08.768Z,5.60
2023-05-17T06:33:13.689Z,6.10
2023-05-17T06:35:18.601Z,5.60
2023-05-17T06:37:23.421Z,5.40
2023-05-17T06:39:28.152Z,5.30
2023-05-17T06:41:32.875Z,5.90
2023-05-17T06:43:37.871Z,5.40
2023-05-17T06:45:42.864Z,6.10
2023-05-17T06:47:48.169Z,5.60
2023-05-17T06:49:52.991Z,7.10
2023-05-17T06:51:57.770Z,5.40
2023-05-17T06:54:02.512Z,7.60
2023-05-17T06:56:07.655Z,5.70
2023-05-17T06:58:12.995Z,5.60
2023-05-17T07:00:19.308Z,6.20
2023-05-17T07:02:24.034Z,5.80
2023-05-17T07:04:29.484Z,6.50
2023-05-17T07:06:34.280Z,6.80
2023-05-17T07:08:39.406Z,5.50
2023-05-17T07:10:44.214Z,5.00
2023-05-17T07:12:49.040Z,6.10
2023-05-17T07:14:53.828Z,6.40
2023-05-17T07:16:59.226Z,5.90
2023-05-17T07:19:04.230Z,7.40
2023-05-17T07:21:09.162Z,5.30
2023-05-17T07:23:13.926Z,8.00
2023-05-17T07:25:18.880Z,6.00
2023-05-17T07:27:23.685Z,6.20
2023-05-17T07:29:28.504Z,6.30
2023-05-17T07:31:33.305Z,6.20
2023-05-17T07:33:38.729Z,6.40
2023-05-17T07:35:43.572Z,6.70
2023-05-17T07:37:50.832Z,5.70
2023-05-17T07:39:55.512Z,6.00
2023-05-17T07:42:00.248Z,7.50
2023-05-17T07:44:05.181Z,6.80
2023-05-17T07:46:10.174Z,6.30
2023-05-17T07:48:15.257Z,5.70
2023-05-17T07:50:20.117Z,5.00
2023-05-17T07:52:25.040Z,6.20
2023-05-17T07:54:30.903Z,6.80
2023-05-17T07:56:35.665Z,6.20
2023-05-17T07:58:40.485Z,8.10
2023-05-17T08:00:45.187Z,5.70
2023-05-17T08:02:50.427Z,6.10
2023-05-17T08:04:55.496Z,5.50
2023-05-17T08:07:00.287Z,6.70
2023-05-17T08:09:05.290Z,6.50
2023-05-17T08:11:10.383Z,5.70
2023-05-17T08:13:15.257Z,6.60
2023-05-17T08:15:20.845Z,6.00
2023-05-17T08:17:28.697Z,6.70
2023-05-17T08:19:33.882Z,6.10
2023-05-17T08:21:38.936Z,6.30
2023-05-17T08:23:43.974Z,5.90
2023-05-17T08:25:48.868Z,7.10
2023-05-17T08:27:53.697Z,5.70
2023-05-17T08:29:58.834Z,4.90
2023-05-17T08:32:03.960Z,7.50
2023-05-17T08:34:09.034Z,7.10
2023-05-17T08:36:19.796Z,5.80
2023-05-17T08:38:24.668Z,7.00
2023-05-17T08:40:29.794Z,7.40
2023-05-17T08:42:36.664Z,7.50
2023-05-17T08:44:41.777Z,6.20
2023-05-17T08:46:47.843Z,4.90
2023-05-17T08:48:54.608Z,7.30
2023-05-17T08:50:59.600Z,6.30
2023-05-17T08:53:04.630Z,6.20
2023-05-17T08:55:10.699Z,5.50
2023-05-17T08:57:16.670Z,5.30
2023-05-17T08:59:21.918Z,6.40
2023-05-17T09:01:28.378Z,4.90
2023-05-17T09:03:39.329Z,7.50
2023-05-17T09:05:44.508Z,6.50
2023-05-17T09:07:51.121Z,6.40
2023-05-17T09:09:55.894Z,8.30
2023-05-17T09:12:00.950Z,8.10
2023-05-17T09:14:07.373Z,5.60
2023-05-17T09:16:16.337Z,6.00
2023-05-17T09:18:28.998Z,6.20
2023-05-17T09:20:34.322Z,6.70
2023-05-17T09:22:39.280Z,6.10
2023-05-17T09:24:44.704Z,5.80
2023-05-17T09:26:49.457Z,6.30
2023-05-17T09:28:54.394Z,7.70
2023-05-17T09:31:05.358Z,6.00
2023-05-17T09:33:12.418Z,7.10
2023-05-17T09:35:19.122Z,6.30
2023-05-17T09:37:24.879Z,6.70
2023-05-17T09:39:32.034Z,6.60
2023-05-17T09:41:44.375Z,5.80
2023-05-17T09:43:49.404Z,7.30
2023-05-17T09:45:58.876Z,5.70
2023-05-17T09:48:15.287Z,5.30
2023-05-17T09:50:23.841Z,6.10
2023-05-17T09:52:30.376Z,6.00
2023-05-17T09:54:39.319Z,7.00
2023-05-17T09:56:44.625Z,6.40
2023-05-17T09:58:51.088Z,6.20
2023-05-17T10:00:59.227Z,6.90
2023-05-17T10:03:05.324Z,6.10
2023-05-17T10:05:12.868Z,4.90
2023-05-17T10:07:20.216Z,7.10
2023-05-17T10:09:26.202Z,7.40
2023-05-17T10:11:32.343Z,5.80
2023-05-17T10:13:42.189Z,5.90
2023-05-17T10:15:47.733Z,6.00
2023-05-17T10:17:53.246Z,6.20
2023-05-17T10:19:58.727Z,6.10
2023-05-17T10:22:21.799Z,5.90
2023-05-17T10:24:29.988Z,5.10
2023-05-17T10:26:35.768Z,5.50
2023-05-17T10:28:42.369Z,6.10
2023-05-17T10:30:47.609Z,5.20
2023-05-17T10:32:52.940Z,5.70
2023-05-17T10:35:10.430Z,5.50
2023-05-17T10:37:17.988Z,4.60
2023-05-17T10:39:23.946Z,6.10
2023-05-17T10:41:32.080Z,5.50
2023-05-17T10:43:39.957Z,6.90
2023-05-17T10:45:45.874Z,6.10
2023-05-17T10:47:52.484Z,5.20
2023-05-17T10:49:57.621Z,6.30
2023-05-17T10:52:13.450Z,5.40
2023-05-17T10:54:18.291Z,7.00
2023-05-17T10:56:24.305Z,5.00
2023-05-17T10:58:29.910Z,5.10
2023-05-17T11:00:40.949Z,5.40
2023-05-17T11:02:45.812Z,8.10
2023-05-17T11:04:52.222Z,5.90
2023-05-17T11:07:24.243Z,5.90
2023-05-17T11:09:33.876Z,5.90
2023-05-17T11:11:58.760Z,5.00
2023-05-17T11:14:05.787Z,7.50
2023-05-17T11:16:15.293Z,4.70
2023-05-17T11:18:30.043Z,5.00
2023-05-17T11:20:37.604Z,5.10
2023-05-17T11:22:44.478Z,6.00
2023-05-17T11:24:53.208Z,6.40
2023-05-17T11:27:00.603Z,6.10
2023-05-17T11:29:08.639Z,5.40
2023-05-17T11:31:15.718Z,5.10
2023-05-17T11:33:37.511Z,6.10
2023-05-17T11:35:42.460Z,7.30
2023-05-17T11:37:47.749Z,6.40
2023-05-17T11:40:06.178Z,5.50
2023-05-17T11:42:25.600Z,6.50
2023-05-17T11:44:33.390Z,5.40
2023-05-17T11:46:39.637Z,6.70
2023-05-17T11:48:45.532Z,7.10
2023-05-17T11:50:51.716Z,5.50
2023-05-17T11:52:57.014Z,6.80
2023-05-17T11:55:02.046Z,6.50
2023-05-17T11:57:08.677Z,6.60
2023-05-17T11:59:20.775Z,6.80
2023-05-17T12:01:25.536Z,6.20
2023-05-17T12:03:31.857Z,5.70
2023-05-17T12:05:37.280Z,6.00
2023-05-17T12:07:42.056Z,6.60
2023-05-17T12:09:47.969Z,6.20
2023-05-17T12:11:53.065Z,8.40
2023-05-17T12:13:58.464Z,6.80
2023-05-17T12:16:07.223Z,7.10
2023-05-17T12:18:12.313Z,6.20
2023-05-17T12:20:18.378Z,6.20
2023-05-17T12:22:23.172Z,6.30
2023-05-17T12:24:38.513Z,5.90
2023-05-17T12:26:46.624Z,6.30
2023-05-17T12:28:57.531Z,5.80
2023-05-17T12:31:03.289Z,5.50
2023-05-17T12:33:09.227Z,5.10
2023-05-17T12:35:14.596Z,5.40
2023-05-17T12:37:19.543Z,6.50
2023-05-17T12:39:24.936Z,5.60
2023-05-17T12:41:30.391Z,6.50
2023-05-17T12:43:37.391Z,5.70
2023-05-17T12:45:44.455Z,6.50
2023-05-17T12:47:49.399Z,5.80
2023-05-17T12:49:57.085Z,6.20
2023-05-17T12:52:05.174Z,6.10
2023-05-17T12:54:10.030Z,6.30
2023-05-17T12:56:19.023Z,6.50
2023-05-17T12:58:23.935Z,6.90
2023-05-17T13:00:29.235Z,7.30
2023-05-17T13:02:34.314Z,7.20
2023-05-17T13:04:39.231Z,8.10
2023-05-17T13:06:48.262Z,7.00
2023-05-17T13:09:01.536Z,5.70
2023-05-17T13:11:13.657Z,5.50
2023-05-17T13:13:21.305Z,5.30
2023-05-17T13:15:30.822Z,5.20
2023-05-17T13:17:38.372Z,6.00
2023-05-17T13:19:43.426Z,5.90
2023-05-17T13:21:48.277Z,5.30
2023-05-17T13:23:53.173Z,6.40
2023-05-17T13:25:57.921Z,6.40
2023-05-17T13:28:02.836Z,5.90
2023-05-17T13:30:10.849Z,6.00
2023-05-17T13:32:15.753Z,5.50
2023-05-17T13:34:21.164Z,6.00
2023-05-17T13:36:26.029Z,7.20
2023-05-17T13:38:30.806Z,8.00
2023-05-17T13:40:37.288Z,5.80
2023-05-17T13:42:42.160Z,6.10
2023-05-17T13:44:47.123Z,6.20
2023-05-17T13:46:51.969Z,5.30
2023-05-17T13:48:56.890Z,5.10
2023-05-17T13:51:01.709Z,6.00
2023-05-17T13:53:06.527Z,7.40
2023-05-17T13:55:14.584Z,6.80
2023-05-17T13:57:19.458Z,7.10
2023-05-17T13:59:24.865Z,6.50
2023-05-17T14:01:29.627Z,5.90
2023-05-17T14:03:34.586Z,7.00
2023-05-17T14:05:39.877Z,5.70
2023-05-17T14:07:44.588Z,7.80
2023-05-17T14:09:49.464Z,8.60
2023-05-17T14:11:54.371Z,5.50
2023-05-17T14:13:59.350Z,7.30
2023-05-17T14:16:04.343Z,6.60
2023-05-17T14:18:10.056Z,7.00
2023-05-17T14:20:15.390Z,6.70
2023-05-17T14:22:23.305Z,6.40
2023-05-17T14:24:28.120Z,5.90
2023-05-17T14:26:32.975Z,7.30
2023-05-17T14:28:38.448Z,6.90
2023-05-17T14:30:43.505Z,6.40
2023-05-17T14:32:48.768Z,7.10
2023-05-17T14:34:53.658Z,7.40
2023-05-17T14:36:58.481Z,6.30
2023-05-17T14:39:03.675Z,7.50
2023-05-17T14:41:08.320Z,6.70
2023-05-17T14:43:13.121Z,6.90
2023-05-17T14:45:17.920Z,6.10
2023-05-17T14:47:25.357Z,6.90
2023-05-17T14:49:30.299Z,8.00
2023-05-17T14:51:35.034Z,7.80
2023-05-17T14:53:39.811Z,8.10
2023-05-17T14:55:44.635Z,7.50
2023-05-17T14:57:49.412Z,7.50
2023-05-17T14:59:54.151Z,8.20
2023-05-17T15:01:58.955Z,7.30
2023-05-17T15:04:03.839Z,7.30
2023-05-17T15:06:11.104Z,8.20
2023-05-17T15:08:16.801Z,7.40
2023-05-17T15:10:21.990Z,8.30
2023-05-17T15:12:26.781Z,6.60
2023-05-17T15:14:34.722Z,8.50
2023-05-17T15:16:42.469Z,8.30
2023-05-17T15:18:47.370Z,9.50
2023-05-17T15:20:52.158Z,8.80
2023-05-17T15:22:56.960Z,8.00
2023-05-17T15:25:01.693Z,8.20
2023-05-17T15:27:06.858Z,8.00
2023-05-17T15:29:11.716Z,9.50
2023-05-17T15:31:16.539Z,9.00
2023-05-17T15:33:21.402Z,9.40
2023-05-17T15:35:26.472Z,8.30
2023-05-17T15:37:31.307Z,8.90
2023-05-17T15:39:36.081Z,10.10
2023-05-17T15:41:40.924Z,9.50
2023-05-17T15:43:45.800Z,8.10
2023-05-17T15:45:50.755Z,9.30
2023-05-17T15:47:55.938Z,9.40
2023-05-17T15:50:07.028Z,8.10
2023-05-17T15:52:11.897Z,9.00
2023-05-17T15:54:16.994Z,8.10
2023-05-17T15:56:22.006Z,7.20
2023-05-17T15:58:27.199Z,9.10
2023-05-17T16:00:32.080Z,9.50
2023-05-17T16:02:37.080Z,9.10
2023-05-17T16:04:41.908Z,8.50
2023-05-17T16:06:46.710Z,9.50
2023-05-17T16:08:51.540Z,11.60
2023-05-17T16:10:58.398Z,9.40
2023-05-17T16:13:07.473Z,8.60
2023-05-17T16:15:12.873Z,8.90
2023-05-17T16:17:17.577Z,7.50
2023-05-17T16:19:22.650Z,7.70
2023-05-17T16:21:27.599Z,9.50
2023-05-17T16:23:32.362Z,8.00
2023-05-17T16:25:37.274Z,8.10
2023-05-17T16:27:42.136Z,9.30
2023-05-17T16:29:47.022Z,8.80
2023-05-17T16:31:51.914Z,9.20
2023-05-17T16:33:56.759Z,10.70
2023-05-17T16:36:02.123Z,10.20
2023-05-17T16:38:06.971Z,8.50
2023-05-17T16:40:12.681Z,9.40
2023-05-17T16:42:17.367Z,8.10
2023-05-17T16:44:22.250Z,9.00
2023-05-17T16:46:26.957Z,8.50
2023-05-17T16:48:31.670Z,9.20
2023-05-17T16:50:36.448Z,8.50
2023-05-17T16:52:41.180Z,8.90
2023-05-17T16:54:46.120Z,7.80
2023-05-17T16:56:50.870Z,8.00
2023-05-17T16:58:55.580Z,8.20
2023-05-17T17:01:00.421Z,8.80
2023-05-17T17:03:08.206Z,7.80
2023-05-17T17:05:14.177Z,8.80
2023-05-17T17:07:19.104Z,8.60
2023-05-17T17:09:23.885Z,8.30
2023-05-17T17:11:31.378Z,7.10
2023-05-17T17:13:36.185Z,11.20
2023-05-17T17:15:40.924Z,7.70
2023-05-17T17:17:46.730Z,8.60
2023-05-17T17:19:51.499Z,8.30
2023-05-17T17:21:56.309Z,10.90
2023-05-17T17:24:00.991Z,9.50
2023-05-17T17:26:05.938Z,10.40
2023-05-17T17:28:11.094Z,9.70
2023-05-17T17:30:16.030Z,9.60
2023-05-17T17:32:20.866Z,9.70
2023-05-17T17:34:25.612Z,9.00
2023-05-17T17:36:30.352Z,8.50
2023-05-17T17:38:35.172Z,9.10
2023-05-17T17:40:39.910Z,9.20
2023-05-17T17:42:44.719Z,8.40
2023-05-17T17:44:49.453Z,8.40
2023-05-17T17:46:54.306Z,9.00
2023-05-17T17:48:59.109Z,8.70
2023-05-17T17:51:05.287Z,11.80
2023-05-17T17:53:10.185Z,10.50
2023-05-17T17:55:15.130Z,9.90
2023-05-17T17:57:20.008Z,8.50
2023-05-17T17:59:24.726Z,9.30
2023-05-17T18:01:29.559Z,7.90
2023-05-17T18:03:34.519Z,8.80
2023-05-17T18:05:39.377Z,9.90
2023-05-17T18:07:44.184Z,9.70
2023-05-17T18:09:49.001Z,7.90
2023-05-17T18:11:53.711Z,9.90
2023-05-17T18:13:58.515Z,9.30
2023-05-17T18:16:03.646Z,9.10
2023-05-17T18:18:08.432Z,8.60
2023-05-17T18:20:13.429Z,8.70
2023-05-17T18:22:18.329Z,9.50
2023-05-17T18:24:23.432Z,8.30
2023-05-17T18:26:28.526Z,8.90
2023-05-17T18:28:41.864Z,9.50
2023-05-17T18:30:47.315Z,9.70
2023-05-17T18:32:52.193Z,9.60
2023-05-17T18:34:56.910Z,8.80
2023-05-17T18:37:02.353Z,10.00
2023-05-17T18:39:07.682Z,9.80
2023-05-17T18:41:12.582Z,9.10
2023-05-17T18:43:18.360Z,9.40
2023-05-17T18:45:24.333Z,10.30
2023-05-17T18:47:29.166Z,10.00
2023-05-17T18:49:39.661Z,10.60
2023-05-17T18:51:45.010Z,9.10
2023-05-17T18:53:50.465Z,9.10
2023-05-17T18:55:55.467Z,9.30
2023-05-17T18:58:00.873Z,8.50
2023-05-17T19:00:08.062Z,8.70
2023-05-17T19:02:15.417Z,10.50
2023-05-17T19:04:21.049Z,7.30
2023-05-17T19:06:27.998Z,10.90
2023-05-17T19:08:33.940Z,9.90
2023-05-17T19:10:39.604Z,10.40
2023-05-17T19:12:45.765Z,7.50
2023-05-17T19:14:50.738Z,11.10
2023-05-17T19:16:56.096Z,10.10
2023-05-17T19:19:01.040Z,10.90
2023-05-17T19:21:06.299Z,9.30
2023-05-17T19:23:11.768Z,7.90
2023-05-17T19:25:18.406Z,9.00
2023-05-17T19:27:25.873Z,7.80
2023-05-17T19:29:31.038Z,8.60
2023-05-17T19:31:36.409Z,7.20
2023-05-17T19:33:41.413Z,8.60
2023-05-17T19:35:51.880Z,8.20
2023-05-17T19:37:57.925Z,8.30
2023-05-17T19:40:03.725Z,9.50
2023-05-17T19:42:09.614Z,9.90
2023-05-17T19:44:14.390Z,9.00
2023-05-17T19:46:20.015Z,10.40
2023-05-17T19:48:25.894Z,9.10
2023-05-17T19:50:31.748Z,8.50
2023-05-17T19:52:38.093Z,10.10
2023-05-17T19:54:46.697Z,8.30
2023-05-17T19:56:52.974Z,8.20
2023-05-17T19:59:00.979Z,8.00
2023-05-17T20:01:06.179Z,8.70
2023-05-17T20:03:12.108Z,8.00
2023-05-17T20:05:19.095Z,8.40
2023-05-17T20:07:24.772Z,9.10
2023-05-17T20:09:29.960Z,7.70
2023-05-17T20:11:36.315Z,7.40
2023-05-17T20:13:42.138Z,8.80
2023-05-17T20:15:47.907Z,8.10
2023-05-17T20:17:53.803Z,8.00
2023-05-17T20:19:59.132Z,7.60
2023-05-17T20:22:04.408Z,8.00
2023-05-17T20:24:09.871Z,8.30
2023-05-17T20:26:16.042Z,8.60
2023-05-17T20:28:21.253Z,8.40
2023-05-17T20:30:26.768Z,8.80
2023-05-17T20:32:32.032Z,8.00
2023-05-17T20:34:36.787Z,8.30
2023-05-17T20:36:41.993Z,9.20
2023-05-17T20:38:46.871Z,7.80
2023-05-17T20:40:51.733Z,8.40
2023-05-17T20:42:56.405Z,7.70
2023-05-17T20:45:01.350Z,7.90
2023-05-17T20:47:06.208Z,9.10
2023-05-17T20:49:10.943Z,9.00
2023-05-17T20:51:16.293Z,8.90
2023-05-17T20:53:20.931Z,8.90
2023-05-17T20:55:25.716Z,8.90
2023-05-17T20:57:30.388Z,8.60
2023-05-17T20:59:35.311Z,9.50
2023-05-17T21:01:40.137Z,10.20
2023-05-17T21:03:45.134Z,8.50
2023-05-17T21:05:50.318Z,7.80
2023-05-17T21:07:55.043Z,8.40
2023-05-17T21:09:59.785Z,9.00
2023-05-17T21:12:05.078Z,8.70
2023-05-17T21:14:09.840Z,8.90
2023-05-17T21:16:14.683Z,8.30
2023-05-17T21:18:19.483Z,8.00
2023-05-17T21:20:24.843Z,8.90
2023-05-17T21:22:29.968Z,8.30
2023-05-17T21:24:34.683Z,9.10
2023-05-17T21:26:41.059Z,10.30
2023-05-17T21:28:46.169Z,10.10
2023-05-17T21:30:51.388Z,8.00
2023-05-17T21:32:56.120Z,7.80
2023-05-17T21:35:01.012Z,8.30
2023-05-17T21:37:06.096Z,9.10
2023-05-17T21:39:10.812Z,7.80
2023-05-17T21:41:15.826Z,8.20
2023-05-17T21:43:20.658Z,8.80
2023-05-17T21:45:25.476Z,9.20
2023-05-17T21:47:30.285Z,8.90
2023-05-17T21:49:35.210Z,8.20
2023-05-17T21:51:39.971Z,8.60
2023-05-17T21:53:44.658Z,9.40
2023-05-17T21:56:01.444Z,8.10
2023-05-17T21:58:08.125Z,8.40
2023-05-17T22:00:14.978Z,7.60
2023-05-17T22:02:20.113Z,9.40
2023-05-17T22:04:24.770Z,7.80
2023-05-17T22:06:29.457Z,8.70
2023-05-17T22:08:34.201Z,8.50
2023-05-17T22:10:40.131Z,9.70
2023-05-17T22:12:44.886Z,10.10
2023-05-17T22:14:49.631Z,8.00
2023-05-17T22:16:54.328Z,8.90
2023-05-17T22:18:59.161Z,8.50
2023-05-17T22:21:04.033Z,9.70
2023-05-17T22:23:08.817Z,8.80
2023-05-17T22:25:16.396Z,8.50
2023-05-17T22:27:22.709Z,8.90
2023-05-17T22:29:27.480Z,8.10
2023-05-17T22:31:32.276Z,10.10
2023-05-17T22:33:37.051Z,9.00
2023-05-17T22:35:41.754Z,8.40
2023-05-17T22:37:46.539Z,8.50
2023-05-17T22:39:51.295Z,10.00
2023-05-17T22:41:56.048Z,8.60
2023-05-17T22:44:01.036Z,9.90
2023-05-17T22:46:05.913Z,9.00
2023-05-17T22:48:10.889Z,8.70
2023-05-17T22:50:15.925Z,9.30
2023-05-17T22:52:20.775Z,8.00
2023-05-17T22:54:25.608Z,8.50
2023-05-17T22:56:30.366Z,8.70
2023-05-17T22:58:35.455Z,7.90
2023-05-17T23:00:40.153Z,9.00
2023-05-17T23:02:44.843Z,8.60
2023-05-17T23:04:49.539Z,8.90
2023-05-17T23:06:54.852Z,8.10
2023-05-17T23:08:59.494Z,8.90
2023-05-17T23:11:04.170Z,8.70
2023-05-17T23:13:12.237Z,9.80
2023-05-17T23:15:18.142Z,8.40
2023-05-17T23:17:22.822Z,7.20
2023-05-17T23:19:27.579Z,9.00
2023-05-17T23:21:32.345Z,8.20
2023-05-17T23:23:37.097Z,7.40
2023-05-17T23:25:41.861Z,8.40
2023-05-17T23:27:46.694Z,7.70
2023-05-17T23:29:52.406Z,8.00
2023-05-17T23:31:57.099Z,8.70
2023-05-17T23:34:02.160Z,7.80
2023-05-17T23:36:07.901Z,8.10
2023-05-17T23:38:12.969Z,8.00
2023-05-17T23:40:17.971Z,8.20
2023-05-17T23:42:22.825Z,7.70
2023-05-17T23:44:27.494Z,7.60
2023-05-17T23:46:32.394Z,7.60
2023-05-17T23:48:37.135Z,7.40
2023-05-17T23:50:42.080Z,7.80
2023-05-17T23:52:46.727Z,6.70
2023-05-17T23:54:51.501Z,6.80
2023-05-17T23:56:56.259Z,9.30
2023-05-17T23:59:00.954Z,7.10
